Decoded Metar for PAMO (MOUNTAIN VILLAGE in AK, USA) (IATA:MOU) | Meteo·Mobile Aviation Weather
aviador You're here:

PAMO Decoded Metar

MOUNTAIN VILLAGE in AK, USA
Report Time2019-10-20 22:24:00
UTC Time2019-10-21 00:05:02
Flight Rules Old
Wind130° at 09 kt
W.Decomp.*RWY 20: 0.9 kt HW 9 kt LCW
Visibility4828 m
Phenomena:Mist
Clouds:Overcast 002 Hf
Ceiling200 ft
Temp-1°C (ISA -15)
Dew Point-1°C (100% RH)
AAT-6.4°C
QNH1002 hPa
Density Alt-1,083 ft
Elevation338 ft
Report Wrong Elevation
Raw Report
PAMO 202224Z AUTO 13009KT 3SM BR OVC002 M01/M01 A2960 RMK AO2
FZRANO=

Extra information for PAMO:More info

Metar Taf Metar & Taf Last 4 Metars F.Rules Stats Wind Profile Meteogram Temp Stats Airport Information Weather charts Add Link Nearby VenuesMetar ALERT Operation Metar Decoded Social comments

AIRNAV info for PAMO